createdAt,value
2023-05-17T00:00:17.169Z,87
2023-05-17T00:00:48.989Z,87
2023-05-17T00:01:21.042Z,87
2023-05-17T00:01:43.892Z,87
2023-05-17T00:02:06.341Z,87
2023-05-17T00:02:40.926Z,87
2023-05-17T00:03:13.575Z,87
2023-05-17T00:03:45.580Z,87
2023-05-17T00:04:17.309Z,87
2023-05-17T00:04:49.280Z,87
2023-05-17T00:05:21.098Z,87
2023-05-17T00:05:45.376Z,87
2023-05-17T00:06:06.541Z,87
2023-05-17T00:06:41.814Z,87
2023-05-17T00:07:12.865Z,87
2023-05-17T00:07:45.092Z,87
2023-05-17T00:08:17.407Z,87
2023-05-17T00:08:49.550Z,87
2023-05-17T00:09:20.700Z,87
2023-05-17T00:09:43.537Z,87
2023-05-17T00:10:06.457Z,87
2023-05-17T00:10:40.774Z,87
2023-05-17T00:11:13.937Z,87
2023-05-17T00:11:45.678Z,87
2023-05-17T00:12:17.651Z,87
2023-05-17T00:12:49.612Z,87
2023-05-17T00:13:21.770Z,87
2023-05-17T00:13:44.513Z,87
2023-05-17T00:14:07.125Z,87
2023-05-17T00:14:41.353Z,87
2023-05-17T00:15:12.752Z,87
2023-05-17T00:15:45.875Z,87
2023-05-17T00:16:17.262Z,87
2023-05-17T00:16:50.094Z,87
2023-05-17T00:17:21.361Z,87
2023-05-17T00:17:43.933Z,87
2023-05-17T00:18:06.650Z,87
2023-05-17T00:18:41.027Z,87
2023-05-17T00:19:13.750Z,87
2023-05-17T00:19:44.722Z,87
2023-05-17T00:20:17.609Z,87
2023-05-17T00:20:50.634Z,87
2023-05-17T00:21:21.062Z,87
2023-05-17T00:21:43.817Z,87
2023-05-17T00:22:06.425Z,87
2023-05-17T00:22:41.086Z,87
2023-05-17T00:23:12.998Z,87
2023-05-17T00:23:44.746Z,87
2023-05-17T00:24:16.728Z,87
2023-05-17T00:24:51.150Z,87
2023-05-17T00:25:21.186Z,87
2023-05-17T00:25:43.984Z,88
2023-05-17T00:26:06.420Z,87
2023-05-17T00:26:40.667Z,87
2023-05-17T00:27:13.731Z,87
2023-05-17T00:27:44.876Z,87
2023-05-17T00:28:16.721Z,87
2023-05-17T00:28:48.924Z,87
2023-05-17T00:29:21.295Z,88
2023-05-17T00:29:43.689Z,88
2023-05-17T00:30:06.340Z,88
2023-05-17T00:30:41.186Z,88
2023-05-17T00:31:13.243Z,88
2023-05-17T00:31:46.875Z,88
2023-05-17T00:32:16.854Z,88
2023-05-17T00:32:52.266Z,88
2023-05-17T00:33:20.888Z,88
2023-05-17T00:33:43.629Z,88
2023-05-17T00:34:05.683Z,88
2023-05-17T00:34:41.207Z,88
2023-05-17T00:35:13.870Z,88
2023-05-17T00:35:45.246Z,88
2023-05-17T00:36:16.784Z,88
2023-05-17T00:36:49.353Z,88
2023-05-17T00:37:23.186Z,88
2023-05-17T00:37:44.415Z,88
2023-05-17T00:38:07.215Z,88
2023-05-17T00:38:41.420Z,88
2023-05-17T00:39:12.800Z,88
2023-05-17T00:39:45.329Z,88
2023-05-17T00:40:17.121Z,88
2023-05-17T00:40:49.103Z,88
2023-05-17T00:41:21.722Z,88
2023-05-17T00:41:43.936Z,88
2023-05-17T00:42:06.554Z,88
2023-05-17T00:42:41.756Z,88
2023-05-17T00:43:12.882Z,89
2023-05-17T00:43:45.022Z,89
2023-05-17T00:44:17.863Z,89
2023-05-17T00:44:49.263Z,89
2023-05-17T00:45:21.645Z,89
2023-05-17T00:45:43.898Z,89
2023-05-17T00:46:06.380Z,89
2023-05-17T00:46:40.912Z,89
2023-05-17T00:47:12.899Z,89
2023-05-17T00:47:44.847Z,89
2023-05-17T00:48:16.779Z,89
2023-05-17T00:48:48.862Z,89
2023-05-17T00:49:20.608Z,89
2023-05-17T00:49:43.410Z,89
2023-05-17T00:50:06.222Z,89
2023-05-17T00:50:44.306Z,89
2023-05-17T00:51:06.720Z,89
2023-05-17T00:51:45.095Z,89
2023-05-17T00:52:16.721Z,89
2023-05-17T00:52:48.674Z,89
2023-05-17T00:53:20.676Z,89
2023-05-17T00:53:43.500Z,89
2023-05-17T00:54:06.180Z,89
2023-05-17T00:54:40.795Z,89
2023-05-17T00:55:13.008Z,89
2023-05-17T00:55:44.545Z,89
2023-05-17T00:56:16.669Z,89
2023-05-17T00:56:50.127Z,89
2023-05-17T00:57:20.709Z,90
2023-05-17T00:57:43.686Z,90
2023-05-17T00:58:06.116Z,90
2023-05-17T00:58:40.802Z,90
2023-05-17T00:59:14.134Z,90
2023-05-17T00:59:44.559Z,90
2023-05-17T01:00:16.731Z,90
2023-05-17T01:00:48.727Z,90
2023-05-17T01:01:20.786Z,90
2023-05-17T01:01:43.594Z,90
2023-05-17T01:02:05.983Z,90
2023-05-17T01:02:41.086Z,90
2023-05-17T01:03:13.045Z,90
2023-05-17T01:03:44.992Z,90
2023-05-17T01:04:14.827Z,90
2023-05-17T01:04:48.899Z,90
2023-05-17T01:05:21.622Z,90
2023-05-17T01:05:44.693Z,90
2023-05-17T01:06:07.015Z,90
2023-05-17T01:06:41.157Z,90
2023-05-17T01:07:12.997Z,90
2023-05-17T01:07:44.728Z,90
2023-05-17T01:08:16.632Z,90
2023-05-17T01:08:48.793Z,90
2023-05-17T01:09:21.265Z,90
2023-05-17T01:09:43.969Z,90
2023-05-17T01:10:06.673Z,90
2023-05-17T01:10:40.651Z,90
2023-05-17T01:11:13.286Z,90
2023-05-17T01:11:44.615Z,90
2023-05-17T01:12:16.765Z,90
2023-05-17T01:12:48.647Z,90
2023-05-17T01:13:21.234Z,90
2023-05-17T01:13:44.024Z,90
2023-05-17T01:14:06.290Z,90
2023-05-17T01:14:41.810Z,90
2023-05-17T01:15:12.858Z,90
2023-05-17T01:15:44.973Z,90
2023-05-17T01:16:16.793Z,90
2023-05-17T01:16:49.148Z,90
2023-05-17T01:17:21.351Z,90
2023-05-17T01:17:44.003Z,90
2023-05-17T01:18:06.905Z,90
2023-05-17T01:18:40.852Z,90
2023-05-17T01:19:12.844Z,91
2023-05-17T01:19:44.685Z,90
2023-05-17T01:20:17.190Z,90
2023-05-17T01:20:48.905Z,91
2023-05-17T01:21:20.971Z,91
2023-05-17T01:21:43.634Z,91
2023-05-17T01:22:06.076Z,91
2023-05-17T01:22:40.777Z,91
2023-05-17T01:23:12.597Z,91
2023-05-17T01:23:46.698Z,91
2023-05-17T01:24:18.010Z,91
2023-05-17T01:24:48.855Z,91
2023-05-17T01:25:20.548Z,91
2023-05-17T01:25:43.476Z,91
2023-05-17T01:26:06.092Z,91
2023-05-17T01:26:40.728Z,91
2023-05-17T01:27:14.646Z,91
2023-05-17T01:27:44.731Z,91
2023-05-17T01:28:16.856Z,91
2023-05-17T01:28:48.616Z,91
2023-05-17T01:29:20.803Z,91
2023-05-17T01:29:43.535Z,91
2023-05-17T01:30:06.140Z,91
2023-05-17T01:30:41.026Z,91
2023-05-17T01:31:12.666Z,91
2023-05-17T01:31:51.402Z,91
2023-05-17T01:32:16.702Z,91
2023-05-17T01:32:51.370Z,91
2023-05-17T01:33:20.806Z,91
2023-05-17T01:33:43.270Z,91
2023-05-17T01:34:06.157Z,91
2023-05-17T01:34:41.230Z,91
2023-05-17T01:35:12.676Z,91
2023-05-17T01:35:45.150Z,91
2023-05-17T01:36:16.735Z,91
2023-05-17T01:36:48.713Z,91
2023-05-17T01:37:21.190Z,91
2023-05-17T01:37:43.616Z,91
2023-05-17T01:38:06.468Z,91
2023-05-17T01:38:41.068Z,91
2023-05-17T01:39:12.930Z,91
2023-05-17T01:39:44.886Z,91
2023-05-17T01:40:17.176Z,91
2023-05-17T01:40:49.448Z,91
2023-05-17T01:41:20.688Z,91
2023-05-17T01:41:43.407Z,91
2023-05-17T01:42:05.801Z,91
2023-05-17T01:42:40.612Z,91
2023-05-17T01:43:12.816Z,91
2023-05-17T01:43:44.501Z,91
2023-05-17T01:44:17.208Z,91
2023-05-17T01:44:48.484Z,91
2023-05-17T01:45:20.737Z,91
2023-05-17T01:45:43.398Z,91
2023-05-17T01:46:05.845Z,91
2023-05-17T01:46:40.900Z,91
2023-05-17T01:47:12.600Z,91
2023-05-17T01:47:45.639Z,92
2023-05-17T01:48:16.689Z,92
2023-05-17T01:48:48.775Z,92
2023-05-17T01:49:20.762Z,92
2023-05-17T01:49:43.532Z,92
2023-05-17T01:50:08.599Z,92
2023-05-17T01:50:41.145Z,92
2023-05-17T01:51:13.210Z,92
2023-05-17T01:51:45.015Z,92
2023-05-17T01:52:19.626Z,92
2023-05-17T01:52:49.050Z,92
2023-05-17T01:53:20.896Z,92
2023-05-17T01:53:43.809Z,92
2023-05-17T01:54:06.721Z,92
2023-05-17T01:54:40.940Z,92
2023-05-17T01:55:13.291Z,92
2023-05-17T01:55:45.504Z,92
2023-05-17T01:56:17.737Z,92
2023-05-17T01:56:49.271Z,92
2023-05-17T01:57:21.165Z,92
2023-05-17T01:57:43.730Z,92
2023-05-17T01:58:09.068Z,92
2023-05-17T01:58:40.706Z,92
2023-05-17T01:59:14.887Z,92
2023-05-17T01:59:44.564Z,92
2023-05-17T02:00:17.186Z,92
2023-05-17T02:00:48.812Z,92
2023-05-17T02:01:21.302Z,92
2023-05-17T02:01:44.280Z,92
2023-05-17T02:02:11.076Z,92
2023-05-17T02:02:41.073Z,92
2023-05-17T02:03:15.432Z,92
2023-05-17T02:03:58.367Z,92
2023-05-17T02:04:13.995Z,92
2023-05-17T02:04:48.839Z,92
2023-05-17T02:05:26.269Z,92
2023-05-17T02:05:47.180Z,92
2023-05-17T02:06:24.822Z,92
2023-05-17T02:06:47.619Z,92
2023-05-17T02:07:10.341Z,92
2023-05-17T02:07:44.638Z,92
2023-05-17T02:08:16.495Z,92
2023-05-17T02:08:48.912Z,92
2023-05-17T02:09:20.577Z,92
2023-05-17T02:09:43.476Z,92
2023-05-17T02:10:05.885Z,92
2023-05-17T02:10:40.619Z,92
2023-05-17T02:11:12.630Z,92
2023-05-17T02:11:44.666Z,92
2023-05-17T02:12:16.676Z,92
2023-05-17T02:12:48.566Z,92
2023-05-17T02:13:20.806Z,92
2023-05-17T02:13:46.794Z,92
2023-05-17T02:14:24.584Z,92
2023-05-17T02:14:47.382Z,92
2023-05-17T02:15:10.018Z,92
2023-05-17T02:15:44.505Z,92
2023-05-17T02:16:16.614Z,92
2023-05-17T02:16:48.607Z,92
2023-05-17T02:17:20.979Z,92
2023-05-17T02:17:44.311Z,92
2023-05-17T02:18:06.743Z,92
2023-05-17T02:18:40.840Z,92
2023-05-17T02:19:12.661Z,92
2023-05-17T02:19:44.681Z,92
2023-05-17T02:20:16.655Z,92
2023-05-17T02:20:48.587Z,93
2023-05-17T02:21:20.491Z,93
2023-05-17T02:21:43.049Z,93
2023-05-17T02:22:05.617Z,93
2023-05-17T02:22:40.610Z,93
2023-05-17T02:23:12.496Z,93
2023-05-17T02:23:44.712Z,93
2023-05-17T02:24:16.508Z,93
2023-05-17T02:24:48.931Z,93
2023-05-17T02:25:20.528Z,92
2023-05-17T02:25:43.373Z,92
2023-05-17T02:26:05.708Z,92
2023-05-17T02:26:40.875Z,92
2023-05-17T02:27:12.793Z,92
2023-05-17T02:27:44.626Z,92
2023-05-17T02:28:16.725Z,92
2023-05-17T02:28:48.705Z,92
2023-05-17T02:29:20.676Z,92
2023-05-17T02:29:43.363Z,92
2023-05-17T02:30:06.169Z,92
2023-05-17T02:30:40.516Z,92
2023-05-17T02:31:12.849Z,92
2023-05-17T02:31:44.638Z,92
2023-05-17T02:32:16.868Z,92
2023-05-17T02:32:48.515Z,92
2023-05-17T02:33:20.740Z,92
2023-05-17T02:33:43.595Z,92
2023-05-17T02:34:06.037Z,92
2023-05-17T02:34:40.609Z,92
2023-05-17T02:35:12.596Z,92
2023-05-17T02:35:44.585Z,92
2023-05-17T02:36:17.507Z,92
2023-05-17T02:36:48.835Z,93
2023-05-17T02:37:20.613Z,93
2023-05-17T02:37:43.160Z,93
2023-05-17T02:38:05.554Z,93
2023-05-17T02:38:41.031Z,93
2023-05-17T02:39:13.108Z,93
2023-05-17T02:39:46.300Z,93
2023-05-17T02:40:16.589Z,93
2023-05-17T02:40:48.804Z,93
2023-05-17T02:41:20.579Z,93
2023-05-17T02:41:43.399Z,93
2023-05-17T02:42:05.907Z,93
2023-05-17T02:42:40.664Z,93
2023-05-17T02:43:13.549Z,93
2023-05-17T02:43:44.490Z,93
2023-05-17T02:44:16.758Z,93
2023-05-17T02:44:48.642Z,93
2023-05-17T02:45:20.687Z,93
2023-05-17T02:45:43.304Z,93
2023-05-17T02:46:05.720Z,93
2023-05-17T02:46:45.968Z,93
2023-05-17T02:47:14.141Z,93
2023-05-17T02:47:44.701Z,93
2023-05-17T02:48:16.956Z,93
2023-05-17T02:48:48.515Z,93
2023-05-17T02:49:20.722Z,93
2023-05-17T02:49:44.547Z,93
2023-05-17T02:50:08.606Z,93
2023-05-17T02:50:40.957Z,93
2023-05-17T02:51:14.778Z,93
2023-05-17T02:51:44.974Z,93
2023-05-17T02:52:16.927Z,93
2023-05-17T02:52:48.610Z,93
2023-05-17T02:53:22.044Z,93
2023-05-17T02:53:43.407Z,93
2023-05-17T02:54:05.996Z,93
2023-05-17T02:54:40.606Z,93
2023-05-17T02:55:12.610Z,93
2023-05-17T02:55:44.727Z,93
2023-05-17T02:56:16.461Z,93
2023-05-17T02:56:48.852Z,93
2023-05-17T02:57:20.888Z,93
2023-05-17T02:57:44.116Z,93
2023-05-17T02:58:06.257Z,93
2023-05-17T02:58:40.779Z,93
2023-05-17T02:59:15.065Z,93
2023-05-17T02:59:44.565Z,93
2023-05-17T03:00:20.279Z,93
2023-05-17T03:00:48.565Z,93
2023-05-17T03:01:20.449Z,93
2023-05-17T03:01:43.192Z,93
2023-05-17T03:02:05.918Z,93
2023-05-17T03:02:40.677Z,93
2023-05-17T03:03:14.569Z,93
2023-05-17T03:03:46.188Z,93
2023-05-17T03:04:16.737Z,93
2023-05-17T03:04:48.968Z,93
2023-05-17T03:05:20.813Z,93
2023-05-17T03:05:44.128Z,93
2023-05-17T03:06:06.291Z,93
2023-05-17T03:06:40.655Z,93
2023-05-17T03:07:12.743Z,93
2023-05-17T03:07:46.089Z,93
2023-05-17T03:08:17.047Z,93
2023-05-17T03:08:51.451Z,93
2023-05-17T03:09:20.554Z,93
2023-05-17T03:09:43.494Z,93
2023-05-17T03:10:06.427Z,93
2023-05-17T03:10:40.593Z,93
2023-05-17T03:11:12.474Z,93
2023-05-17T03:11:44.878Z,93
2023-05-17T03:12:18.315Z,93
2023-05-17T03:12:48.617Z,93
2023-05-17T03:13:20.946Z,93
2023-05-17T03:13:44.347Z,93
2023-05-17T03:14:06.379Z,93
2023-05-17T03:14:40.666Z,93
2023-05-17T03:15:12.617Z,93
2023-05-17T03:15:44.455Z,93
2023-05-17T03:16:17.888Z,94
2023-05-17T03:16:48.572Z,94
2023-05-17T03:17:21.093Z,94
2023-05-17T03:17:43.565Z,94
2023-05-17T03:18:05.976Z,94
2023-05-17T03:18:40.744Z,94
2023-05-17T03:19:12.776Z,94
2023-05-17T03:19:44.532Z,94
2023-05-17T03:20:18.734Z,94
2023-05-17T03:20:48.485Z,94
2023-05-17T03:21:20.649Z,94
2023-05-17T03:21:44.099Z,94
2023-05-17T03:22:06.605Z,94
2023-05-17T03:22:40.573Z,94
2023-05-17T03:23:12.463Z,94
2023-05-17T03:23:38.803Z,94
2023-05-17T03:24:19.129Z,94
2023-05-17T03:24:48.427Z,94
2023-05-17T03:25:21.067Z,94
2023-05-17T03:25:43.795Z,94
2023-05-17T03:26:06.566Z,94
2023-05-17T03:26:40.889Z,94
2023-05-17T03:27:12.786Z,94
2023-05-17T03:27:44.788Z,94
2023-05-17T03:28:19.145Z,94
2023-05-17T03:28:50.462Z,94
2023-05-17T03:29:20.790Z,94
2023-05-17T03:29:43.465Z,94
2023-05-17T03:30:06.759Z,94
2023-05-17T03:30:40.690Z,94
2023-05-17T03:31:13.112Z,94
2023-05-17T03:31:48.209Z,94
2023-05-17T03:32:17.156Z,94
2023-05-17T03:32:48.762Z,94
2023-05-17T03:33:21.473Z,94
2023-05-17T03:33:43.744Z,94
2023-05-17T03:34:06.176Z,94
2023-05-17T03:34:42.373Z,94
2023-05-17T03:35:12.945Z,94
2023-05-17T03:35:44.996Z,94
2023-05-17T03:36:16.624Z,94
2023-05-17T03:36:48.708Z,94
2023-05-17T03:37:21.020Z,94
2023-05-17T03:37:43.424Z,94
2023-05-17T03:38:05.733Z,94
2023-05-17T03:38:40.738Z,94
2023-05-17T03:39:12.625Z,94
2023-05-17T03:39:44.738Z,94
2023-05-17T03:40:17.554Z,94
2023-05-17T03:40:48.727Z,94
2023-05-17T03:41:21.337Z,94
2023-05-17T03:41:43.463Z,94
2023-05-17T03:42:05.880Z,94
2023-05-17T03:42:40.635Z,94
2023-05-17T03:43:12.435Z,94
2023-05-17T03:43:44.806Z,94
2023-05-17T03:44:16.634Z,94
2023-05-17T03:44:49.003Z,94
2023-05-17T03:45:22.245Z,94
2023-05-17T03:45:43.393Z,94
2023-05-17T03:46:05.756Z,94
2023-05-17T03:46:40.720Z,94
2023-05-17T03:47:13.521Z,94
2023-05-17T03:47:50.553Z,94
2023-05-17T03:48:10.658Z,94
2023-05-17T03:48:48.920Z,94
2023-05-17T03:49:23.122Z,94
2023-05-17T03:49:43.953Z,94
2023-05-17T03:50:08.774Z,94
2023-05-17T03:50:40.689Z,95
2023-05-17T03:51:12.882Z,95
2023-05-17T03:51:44.479Z,95
2023-05-17T03:52:16.623Z,95
2023-05-17T03:52:50.085Z,95
2023-05-17T03:53:23.434Z,95
2023-05-17T03:53:44.456Z,95
2023-05-17T03:54:06.703Z,95
2023-05-17T03:54:40.496Z,95
2023-05-17T03:55:12.578Z,95
2023-05-17T03:55:46.187Z,95
2023-05-17T03:56:17.161Z,95
2023-05-17T03:56:48.762Z,95
2023-05-17T03:57:23.172Z,95
2023-05-17T03:57:43.576Z,95
2023-05-17T03:58:06.063Z,95
2023-05-17T03:58:40.768Z,95
2023-05-17T03:59:18.000Z,95
2023-05-17T03:59:44.604Z,95
2023-05-17T04:00:16.695Z,95
2023-05-17T04:00:48.796Z,95
2023-05-17T04:01:20.555Z,95
2023-05-17T04:01:44.008Z,95
2023-05-17T04:02:06.313Z,95
2023-05-17T04:02:40.956Z,95
2023-05-17T04:03:20.006Z,95
2023-05-17T04:03:44.731Z,95
2023-05-17T04:04:17.109Z,95
2023-05-17T04:04:50.692Z,95
2023-05-17T04:05:20.916Z,95
2023-05-17T04:05:48.386Z,95
2023-05-17T04:06:06.324Z,95
2023-05-17T04:06:40.717Z,95
2023-05-17T04:07:12.904Z,95
2023-05-17T04:07:45.010Z,95
2023-05-17T04:08:16.616Z,95
2023-05-17T04:08:52.229Z,95
2023-05-17T04:09:25.094Z,95
2023-05-17T04:09:44.425Z,95
2023-05-17T04:10:06.858Z,95
2023-05-17T04:10:40.533Z,95
2023-05-17T04:11:12.868Z,95
2023-05-17T04:11:44.496Z,95
2023-05-17T04:12:16.592Z,95
2023-05-17T04:12:48.808Z,95
2023-05-17T04:13:20.840Z,95
2023-05-17T04:13:45.879Z,95
2023-05-17T04:14:08.292Z,95
2023-05-17T04:14:40.709Z,95
2023-05-17T04:15:12.805Z,95
2023-05-17T04:15:44.569Z,95
2023-05-17T04:16:16.980Z,95
2023-05-17T04:16:49.057Z,95
2023-05-17T04:17:23.188Z,95
2023-05-17T04:17:43.757Z,95
2023-05-17T04:18:06.291Z,95
2023-05-17T04:18:40.799Z,95
2023-05-17T04:19:12.764Z,95
2023-05-17T04:19:44.682Z,95
2023-05-17T04:20:16.581Z,95
2023-05-17T04:20:48.713Z,95
2023-05-17T04:21:20.843Z,95
2023-05-17T04:21:43.537Z,95
2023-05-17T04:22:06.139Z,95
2023-05-17T04:22:40.521Z,95
2023-05-17T04:23:12.712Z,95
2023-05-17T04:23:44.495Z,95
2023-05-17T04:24:16.662Z,95
2023-05-17T04:24:48.610Z,95
2023-05-17T04:25:20.807Z,95
2023-05-17T04:25:44.007Z,95
2023-05-17T04:26:06.345Z,95
2023-05-17T04:26:40.685Z,95
2023-05-17T04:27:12.848Z,95
2023-05-17T04:27:44.616Z,95
2023-05-17T04:28:16.456Z,95
2023-05-17T04:28:48.417Z,95
2023-05-17T04:29:20.523Z,95
2023-05-17T04:29:43.747Z,95
2023-05-17T04:30:06.286Z,95
2023-05-17T04:30:40.623Z,95
2023-05-17T04:31:12.440Z,95
2023-05-17T04:31:45.080Z,95
2023-05-17T04:32:16.720Z,95
2023-05-17T04:32:48.612Z,95
2023-05-17T04:33:20.477Z,95
2023-05-17T04:33:43.719Z,95
2023-05-17T04:34:06.101Z,95
2023-05-17T04:34:40.625Z,95
2023-05-17T04:35:12.432Z,95
2023-05-17T04:35:44.653Z,95
2023-05-17T04:36:16.581Z,95
2023-05-17T04:36:48.617Z,95
2023-05-17T04:37:20.607Z,95
2023-05-17T04:37:43.472Z,95
2023-05-17T04:38:05.694Z,95
2023-05-17T04:38:40.819Z,95
2023-05-17T04:39:12.583Z,95
2023-05-17T04:39:44.977Z,95
2023-05-17T04:40:16.531Z,95
2023-05-17T04:40:48.466Z,95
2023-05-17T04:41:20.635Z,95
2023-05-17T04:41:43.401Z,95
2023-05-17T04:42:05.854Z,95
2023-05-17T04:42:40.672Z,95
2023-05-17T04:43:12.464Z,95
2023-05-17T04:43:44.723Z,95
2023-05-17T04:44:16.679Z,95
2023-05-17T04:44:48.588Z,95
2023-05-17T04:45:20.708Z,95
2023-05-17T04:45:45.092Z,95
2023-05-17T04:46:07.795Z,95
2023-05-17T04:46:40.591Z,95
2023-05-17T04:47:12.447Z,95
2023-05-17T04:47:45.011Z,95
2023-05-17T04:48:16.670Z,95
2023-05-17T04:48:48.773Z,95
2023-05-17T04:49:20.795Z,95
2023-05-17T04:49:43.251Z,95
2023-05-17T04:50:09.075Z,95
2023-05-17T04:50:40.750Z,95
2023-05-17T04:51:12.571Z,95
2023-05-17T04:51:44.457Z,95
2023-05-17T04:52:16.802Z,95
2023-05-17T04:52:48.556Z,95
2023-05-17T04:53:20.646Z,95
2023-05-17T04:53:43.468Z,95
2023-05-17T04:54:05.835Z,95
2023-05-17T04:54:46.151Z,95
2023-05-17T04:55:12.816Z,95
2023-05-17T04:55:38.939Z,95
2023-05-17T04:56:17.702Z,95
2023-05-17T04:56:49.394Z,95
2023-05-17T04:57:20.785Z,95
2023-05-17T04:57:43.451Z,95
2023-05-17T04:58:06.846Z,95
2023-05-17T04:58:41.694Z,95
2023-05-17T04:59:14.283Z,95
2023-05-17T04:59:45.504Z,95
2023-05-17T05:00:16.939Z,95
2023-05-17T05:00:49.921Z,95
2023-05-17T05:01:21.060Z,95
2023-05-17T05:01:43.309Z,95
2023-05-17T05:02:06.804Z,95
2023-05-17T05:02:41.235Z,95
2023-05-17T05:03:13.254Z,95
2023-05-17T05:03:45.609Z,94
2023-05-17T05:04:17.552Z,94
2023-05-17T05:04:48.612Z,94
2023-05-17T05:05:21.539Z,94
2023-05-17T05:05:44.153Z,94
2023-05-17T05:06:06.941Z,94
2023-05-17T05:06:41.522Z,94
2023-05-17T05:07:13.073Z,94
2023-05-17T05:07:45.008Z,94
2023-05-17T05:08:17.225Z,94
2023-05-17T05:08:48.584Z,94
2023-05-17T05:09:20.971Z,94
2023-05-17T05:09:43.574Z,94
2023-05-17T05:10:07.291Z,94
2023-05-17T05:10:40.765Z,94
2023-05-17T05:11:16.508Z,94
2023-05-17T05:11:45.109Z,94
2023-05-17T05:12:17.033Z,94
2023-05-17T05:12:48.710Z,94
2023-05-17T05:13:21.225Z,94
2023-05-17T05:13:44.320Z,94
2023-05-17T05:14:07.381Z,94
2023-05-17T05:14:41.509Z,94
2023-05-17T05:15:12.779Z,94
2023-05-17T05:15:44.763Z,94
2023-05-17T05:16:16.587Z,94
2023-05-17T05:16:48.849Z,94
2023-05-17T05:17:23.705Z,94
2023-05-17T05:17:46.384Z,93
2023-05-17T05:18:09.140Z,93
2023-05-17T05:18:41.130Z,93
2023-05-17T05:19:13.139Z,93
2023-05-17T05:19:44.578Z,93
2023-05-17T05:20:16.881Z,93
2023-05-17T05:20:49.279Z,93
2023-05-17T05:21:21.221Z,93
2023-05-17T05:21:43.853Z,93
2023-05-17T05:22:06.311Z,93
2023-05-17T05:22:41.210Z,93
2023-05-17T05:23:16.054Z,93
2023-05-17T05:23:45.831Z,93
2023-05-17T05:24:16.866Z,93
2023-05-17T05:24:48.489Z,93
2023-05-17T05:25:20.611Z,93
2023-05-17T05:25:43.148Z,93
2023-05-17T05:26:05.612Z,93
2023-05-17T05:26:40.580Z,93
2023-05-17T05:27:13.105Z,93
2023-05-17T05:27:44.693Z,93
2023-05-17T05:28:16.754Z,93
2023-05-17T05:28:48.418Z,93
2023-05-17T05:29:20.425Z,92
2023-05-17T05:29:43.176Z,92
2023-05-17T05:30:06.270Z,92
2023-05-17T05:30:40.954Z,92
2023-05-17T05:31:12.510Z,92
2023-05-17T05:31:45.043Z,92
2023-05-17T05:32:18.130Z,92
2023-05-17T05:32:49.387Z,92
2023-05-17T05:33:20.545Z,92
2023-05-17T05:33:43.093Z,92
2023-05-17T05:34:09.540Z,92
2023-05-17T05:34:41.425Z,92
2023-05-17T05:35:12.536Z,92
2023-05-17T05:35:45.334Z,92
2023-05-17T05:36:17.583Z,92
2023-05-17T05:36:48.536Z,92
2023-05-17T05:37:21.566Z,92
2023-05-17T05:37:44.446Z,92
2023-05-17T05:38:06.523Z,92
2023-05-17T05:38:41.727Z,92
2023-05-17T05:39:12.423Z,92
2023-05-17T05:39:45.566Z,92
2023-05-17T05:40:17.909Z,92
2023-05-17T05:40:48.943Z,92
2023-05-17T05:41:20.581Z,92
2023-05-17T05:41:43.200Z,92
2023-05-17T05:42:05.598Z,92
2023-05-17T05:42:42.454Z,92
2023-05-17T05:43:12.801Z,92
2023-05-17T05:43:44.427Z,92
2023-05-17T05:44:16.557Z,92
2023-05-17T05:44:48.429Z,92
2023-05-17T05:45:20.783Z,92
2023-05-17T05:45:43.433Z,92
2023-05-17T05:46:08.357Z,92
2023-05-17T05:46:42.744Z,92
2023-05-17T05:47:12.789Z,92
2023-05-17T05:47:46.326Z,92
2023-05-17T05:48:16.652Z,92
2023-05-17T05:48:49.481Z,92
2023-05-17T05:49:20.630Z,92
2023-05-17T05:49:43.312Z,92
2023-05-17T05:50:05.400Z,92
2023-05-17T05:50:44.111Z,92
2023-05-17T05:51:20.714Z,92
2023-05-17T05:51:43.596Z,92
2023-05-17T05:52:16.837Z,92
2023-05-17T05:52:48.924Z,92
2023-05-17T05:53:20.468Z,91
2023-05-17T05:53:43.953Z,91
2023-05-17T05:54:05.708Z,92
2023-05-17T05:54:40.541Z,91
2023-05-17T05:55:12.676Z,91
2023-05-17T05:55:44.572Z,91
2023-05-17T05:56:16.459Z,91
2023-05-17T05:56:48.791Z,91
2023-05-17T05:57:20.947Z,91
2023-05-17T05:57:45.499Z,91
2023-05-17T05:58:07.528Z,91
2023-05-17T05:58:40.735Z,91
2023-05-17T05:59:12.663Z,91
2023-05-17T05:59:44.527Z,91
2023-05-17T06:00:18.351Z,91
2023-05-17T06:00:44.801Z,91
2023-05-17T06:01:18.237Z,90
2023-05-17T06:01:49.203Z,90
2023-05-17T06:02:24.799Z,90
2023-05-17T06:02:51.115Z,90
2023-05-17T06:03:18.727Z,90
2023-05-17T06:04:17.052Z,90
2023-05-17T06:04:49.306Z,90
2023-05-17T06:05:20.868Z,90
2023-05-17T06:05:45.928Z,90
2023-05-17T06:06:07.240Z,90
2023-05-17T06:06:42.093Z,90
2023-05-17T06:07:18.268Z,90
2023-05-17T06:07:40.982Z,90
2023-05-17T06:08:17.113Z,90
2023-05-17T06:08:48.620Z,90
2023-05-17T06:09:20.418Z,90
2023-05-17T06:09:45.891Z,89
2023-05-17T06:10:06.142Z,89
2023-05-17T06:10:40.854Z,89
2023-05-17T06:11:12.574Z,89
2023-05-17T06:11:46.244Z,89
2023-05-17T06:12:16.668Z,89
2023-05-17T06:12:49.096Z,89
2023-05-17T06:13:26.056Z,89
2023-05-17T06:13:46.587Z,89
2023-05-17T06:14:06.638Z,89
2023-05-17T06:14:41.013Z,89
2023-05-17T06:15:12.778Z,89
2023-05-17T06:15:46.551Z,88
2023-05-17T06:16:16.717Z,89
2023-05-17T06:16:48.599Z,88
2023-05-17T06:17:21.184Z,88
2023-05-17T06:17:44.839Z,88
2023-05-17T06:18:05.690Z,88
2023-05-17T06:18:40.694Z,88
2023-05-17T06:19:12.680Z,88
2023-05-17T06:19:46.770Z,88
2023-05-17T06:20:11.134Z,88
2023-05-17T06:20:49.960Z,88
2023-05-17T06:21:23.386Z,88
2023-05-17T06:21:43.659Z,88
2023-05-17T06:22:06.123Z,88
2023-05-17T06:22:40.485Z,88
2023-05-17T06:23:13.068Z,88
2023-05-17T06:23:47.894Z,87
2023-05-17T06:24:17.882Z,87
2023-05-17T06:24:48.578Z,87
2023-05-17T06:25:20.819Z,87
2023-05-17T06:25:43.444Z,87
2023-05-17T06:26:05.852Z,87
2023-05-17T06:26:40.752Z,87
2023-05-17T06:27:13.020Z,87
2023-05-17T06:27:45.285Z,87
2023-05-17T06:28:16.597Z,87
2023-05-17T06:28:50.239Z,87
2023-05-17T06:29:20.565Z,87
2023-05-17T06:29:43.227Z,87
2023-05-17T06:30:07.425Z,86
2023-05-17T06:30:40.628Z,86
2023-05-17T06:31:12.840Z,86
2023-05-17T06:31:44.589Z,86
2023-05-17T06:32:17.851Z,86
2023-05-17T06:32:49.607Z,86
2023-05-17T06:33:21.376Z,86
2023-05-17T06:33:43.671Z,86
2023-05-17T06:34:06.039Z,86
2023-05-17T06:34:41.050Z,85
2023-05-17T06:35:12.531Z,85
2023-05-17T06:35:56.066Z,85
2023-05-17T06:36:16.605Z,84
2023-05-17T06:36:49.732Z,84
2023-05-17T06:37:21.600Z,84
2023-05-17T06:37:44.147Z,84
2023-05-17T06:38:07.179Z,84
2023-05-17T06:38:42.566Z,83
2023-05-17T06:39:13.967Z,83
2023-05-17T06:39:51.564Z,83
2023-05-17T06:40:17.362Z,82
2023-05-17T06:40:51.516Z,81
2023-05-17T06:41:20.695Z,81
2023-05-17T06:41:44.831Z,81
2023-05-17T06:42:06.041Z,80
2023-05-17T06:42:41.039Z,80
2023-05-17T06:43:12.397Z,80
2023-05-17T06:43:44.482Z,80
2023-05-17T06:44:16.586Z,80
2023-05-17T06:44:50.729Z,80
2023-05-17T06:45:20.603Z,80
2023-05-17T06:45:43.263Z,79
2023-05-17T06:46:05.628Z,79
2023-05-17T06:46:40.547Z,79
2023-05-17T06:47:12.719Z,78
2023-05-17T06:47:44.552Z,78
2023-05-17T06:48:17.274Z,78
2023-05-17T06:48:51.711Z,78
2023-05-17T06:49:20.900Z,78
2023-05-17T06:49:43.610Z,78
2023-05-17T06:50:10.962Z,78
2023-05-17T06:50:40.829Z,78
2023-05-17T06:51:16.824Z,78
2023-05-17T06:51:45.334Z,78
2023-05-17T06:52:17.798Z,78
2023-05-17T06:52:51.697Z,78
2023-05-17T06:53:20.508Z,78
2023-05-17T06:53:43.136Z,78
2023-05-17T06:54:05.763Z,79
2023-05-17T06:54:40.541Z,79
2023-05-17T06:55:12.847Z,79
2023-05-17T06:55:44.570Z,79
2023-05-17T06:56:16.778Z,79
2023-05-17T06:56:48.787Z,79
2023-05-17T06:57:24.888Z,79
2023-05-17T06:57:44.246Z,79
2023-05-17T06:58:06.768Z,79
2023-05-17T06:58:41.034Z,78
2023-05-17T06:59:12.615Z,78
2023-05-17T06:59:44.978Z,78
2023-05-17T07:00:16.847Z,78
2023-05-17T07:00:48.888Z,78
2023-05-17T07:01:20.689Z,78
2023-05-17T07:01:43.618Z,78
2023-05-17T07:02:05.874Z,77
2023-05-17T07:02:43.876Z,78
2023-05-17T07:03:12.774Z,77
2023-05-17T07:03:47.090Z,77
2023-05-17T07:04:16.937Z,77
2023-05-17T07:04:48.879Z,77
2023-05-17T07:05:27.899Z,77
2023-05-17T07:05:57.237Z,77
2023-05-17T07:06:19.731Z,78
2023-05-17T07:06:49.204Z,78
2023-05-17T07:07:12.722Z,77
2023-05-17T07:07:45.448Z,77
2023-05-17T07:08:17.538Z,77